Letort, Pennsylvania
Current Conditions -  °F | °C
As of 2:53 PM on Monday 22 Dec 2014 (Local Time) from KLNS Reporting Station
Overcast Overcast  
Wind Chill: 34°   Ceiling: 3800
Heat Index: 38°   Visibility: 8mi
Dew Point: 30°   Wind: 5mph
Humidity: 73%   Direction: 80°E
Pressure: 30.19"   Gusts: NA
Location:  39.9869°N, 76.4358°W
Report Text: KLNS 221953Z 08004KT 8SM BKN038 OVC075 03/M01 A3019 RMK AO2 SLP226 T00331011
Loading
Personal Weather Stations






























Interactive Weather Map New forecast layout! Learn more

10-Day Weather Forecast

Advertisements
Track Severe Weather on mobile